Terminal Aerodrome Forecast
Issued by NWS Pocatello, ID

Home | Current Version | Previous Version | Text Only | Print | Product List | Glossary On
Versions: 1 2 3 4 5 6 7 8 9 10 11 12 13
000
FTUS45 KPIH 281700
TAFIDA
TAF
KIDA 281720Z 2818/2918 23028G37KT P6SM SCT070 SCT150
      TEMPO 2818/2820 5SM BLDU SCT020
     FM290200 21011KT P6SM SCT250
     FM290600 21007KT P6SM SKC=

USA.gov is the U.S. government's official web portal to all federal, state and local government web resources and services.